sensor_id;sensor_type;location;lat;lon;timestamp;P1;durP1;ratioP1;P2;durP2;ratioP2
67981;SDS011;64109;52.148;4.466;2022-12-18T00:01:32;20.92;;;10.68;;
67981;SDS011;64109;52.148;4.466;2022-12-18T00:03:58;20.75;;;10.38;;
67981;SDS011;64109;52.148;4.466;2022-12-18T00:06:25;20.83;;;11.05;;
67981;SDS011;64109;52.148;4.466;2022-12-18T00:08:52;20.17;;;10.60;;
67981;SDS011;64109;52.148;4.466;2022-12-18T00:11:19;22.25;;;11.48;;
67981;SDS011;64109;52.148;4.466;2022-12-18T00:13:45;20.13;;;10.23;;
67981;SDS011;64109;52.148;4.466;2022-12-18T00:16:12;22.65;;;11.70;;
67981;SDS011;64109;52.148;4.466;2022-12-18T00:18:39;22.90;;;11.25;;
67981;SDS011;64109;52.148;4.466;2022-12-18T00:21:06;20.50;;;10.50;;
67981;SDS011;64109;52.148;4.466;2022-12-18T00:23:33;21.40;;;10.88;;
67981;SDS011;64109;52.148;4.466;2022-12-18T00:25:59;20.50;;;11.00;;
67981;SDS011;64109;52.148;4.466;2022-12-18T00:28:26;20.77;;;10.65;;
67981;SDS011;64109;52.148;4.466;2022-12-18T00:30:59;19.60;;;10.55;;
67981;SDS011;64109;52.148;4.466;2022-12-18T00:33:25;21.13;;;10.40;;
67981;SDS011;64109;52.148;4.466;2022-12-18T00:35:51;22.38;;;11.00;;
67981;SDS011;64109;52.148;4.466;2022-12-18T00:38:17;21.23;;;9.93;;
67981;SDS011;64109;52.148;4.466;2022-12-18T00:40:43;22.50;;;11.13;;
67981;SDS011;64109;52.148;4.466;2022-12-18T00:43:09;20.00;;;10.02;;
67981;SDS011;64109;52.148;4.466;2022-12-18T00:45:35;21.52;;;9.88;;
67981;SDS011;64109;52.148;4.466;2022-12-18T00:48:01;21.65;;;11.48;;
67981;SDS011;64109;52.148;4.466;2022-12-18T00:50:27;23.52;;;10.98;;
67981;SDS011;64109;52.148;4.466;2022-12-18T00:52:53;20.80;;;10.95;;
67981;SDS011;64109;52.148;4.466;2022-12-18T00:55:19;22.60;;;10.80;;
67981;SDS011;64109;52.148;4.466;2022-12-18T00:57:45;21.17;;;10.38;;
67981;SDS011;64109;52.148;4.466;2022-12-18T01:00:12;22.35;;;11.30;;
67981;SDS011;64109;52.148;4.466;2022-12-18T01:02:38;19.98;;;10.05;;
67981;SDS011;64109;52.148;4.466;2022-12-18T01:05:05;23.00;;;11.65;;
67981;SDS011;64109;52.148;4.466;2022-12-18T01:07:31;20.75;;;10.70;;
67981;SDS011;64109;52.148;4.466;2022-12-18T01:09:57;24.08;;;11.70;;
67981;SDS011;64109;52.148;4.466;2022-12-18T01:12:23;23.50;;;11.38;;
67981;SDS011;64109;52.148;4.466;2022-12-18T01:14:49;21.85;;;10.80;;
67981;SDS011;64109;52.148;4.466;2022-12-18T01:17:15;24.00;;;11.23;;
67981;SDS011;64109;52.148;4.466;2022-12-18T01:19:41;22.50;;;10.80;;
67981;SDS011;64109;52.148;4.466;2022-12-18T01:22:07;21.55;;;10.13;;
67981;SDS011;64109;52.148;4.466;2022-12-18T01:24:33;24.27;;;11.80;;
67981;SDS011;64109;52.148;4.466;2022-12-18T01:26:59;25.23;;;12.07;;
67981;SDS011;64109;52.148;4.466;2022-12-18T01:29:25;26.77;;;11.73;;
67981;SDS011;64109;52.148;4.466;2022-12-18T01:31:54;25.63;;;11.10;;
67981;SDS011;64109;52.148;4.466;2022-12-18T01:34:20;21.92;;;10.25;;
67981;SDS011;64109;52.148;4.466;2022-12-18T01:36:46;22.65;;;10.35;;
67981;SDS011;64109;52.148;4.466;2022-12-18T01:39:13;25.65;;;11.60;;
67981;SDS011;64109;52.148;4.466;2022-12-18T01:41:40;19.65;;;10.35;;
67981;SDS011;64109;52.148;4.466;2022-12-18T01:47:12;23.95;;;11.48;;
67981;SDS011;64109;52.148;4.466;2022-12-18T01:49:39;23.65;;;10.68;;
67981;SDS011;64109;52.148;4.466;2022-12-18T01:52:06;24.52;;;10.40;;
67981;SDS011;64109;52.148;4.466;2022-12-18T01:54:32;21.05;;;10.45;;
67981;SDS011;64109;52.148;4.466;2022-12-18T01:56:58;23.05;;;10.88;;
67981;SDS011;64109;52.148;4.466;2022-12-18T01:59:25;22.90;;;10.77;;
67981;SDS011;64109;52.148;4.466;2022-12-18T02:01:52;20.70;;;10.35;;
67981;SDS011;64109;52.148;4.466;2022-12-18T02:04:21;21.58;;;10.00;;
67981;SDS011;64109;52.148;4.466;2022-12-18T02:06:50;21.85;;;10.43;;
67981;SDS011;64109;52.148;4.466;2022-12-18T02:09:18;23.15;;;10.60;;
67981;SDS011;64109;52.148;4.466;2022-12-18T02:22:37;20.92;;;10.10;;
67981;SDS011;64109;52.148;4.466;2022-12-18T02:27:51;19.50;;;10.30;;
67981;SDS011;64109;52.148;4.466;2022-12-18T02:30:17;20.02;;;10.60;;
67981;SDS011;64109;52.148;4.466;2022-12-18T02:32:46;23.17;;;10.52;;
67981;SDS011;64109;52.148;4.466;2022-12-18T02:35:13;19.60;;;9.63;;
67981;SDS011;64109;52.148;4.466;2022-12-18T02:37:41;16.88;;;8.70;;
67981;SDS011;64109;52.148;4.466;2022-12-18T02:40:08;20.60;;;10.30;;
67981;SDS011;64109;52.148;4.466;2022-12-18T02:42:34;21.88;;;10.15;;
67981;SDS011;64109;52.148;4.466;2022-12-18T02:45:00;21.25;;;10.10;;
67981;SDS011;64109;52.148;4.466;2022-12-18T02:47:31;18.52;;;9.45;;
67981;SDS011;64109;52.148;4.466;2022-12-18T02:50:10;20.83;;;10.00;;
67981;SDS011;64109;52.148;4.466;2022-12-18T02:52:54;17.50;;;9.07;;
67981;SDS011;64109;52.148;4.466;2022-12-18T02:56:05;20.05;;;10.15;;
67981;SDS011;64109;52.148;4.466;2022-12-18T03:03:05;19.63;;;10.10;;
67981;SDS011;64109;52.148;4.466;2022-12-18T03:11:04;17.55;;;8.77;;
67981;SDS011;64109;52.148;4.466;2022-12-18T03:15:57;16.60;;;8.50;;
67981;SDS011;64109;52.148;4.466;2022-12-18T03:18:25;17.52;;;8.25;;
67981;SDS011;64109;52.148;4.466;2022-12-18T03:20:53;16.08;;;8.65;;
67981;SDS011;64109;52.148;4.466;2022-12-18T03:23:22;16.55;;;8.48;;
67981;SDS011;64109;52.148;4.466;2022-12-18T03:25:51;16.75;;;8.25;;
67981;SDS011;64109;52.148;4.466;2022-12-18T03:28:21;15.15;;;8.52;;
67981;SDS011;64109;52.148;4.466;2022-12-18T03:33:18;16.70;;;8.65;;
67981;SDS011;64109;52.148;4.466;2022-12-18T03:35:45;19.38;;;8.90;;
67981;SDS011;64109;52.148;4.466;2022-12-18T03:38:11;16.83;;;8.57;;
67981;SDS011;64109;52.148;4.466;2022-12-18T03:40:44;15.57;;;8.70;;
67981;SDS011;64109;52.148;4.466;2022-12-18T03:43:15;17.27;;;8.63;;
67981;SDS011;64109;52.148;4.466;2022-12-18T03:45:45;16.60;;;9.00;;
67981;SDS011;64109;52.148;4.466;2022-12-18T03:48:16;16.55;;;8.75;;
67981;SDS011;64109;52.148;4.466;2022-12-18T03:50:46;16.63;;;8.70;;
67981;SDS011;64109;52.148;4.466;2022-12-18T03:55:57;16.80;;;8.30;;
67981;SDS011;64109;52.148;4.466;2022-12-18T03:58:25;17.60;;;9.10;;
67981;SDS011;64109;52.148;4.466;2022-12-18T04:00:51;19.48;;;9.02;;
67981;SDS011;64109;52.148;4.466;2022-12-18T04:03:18;16.70;;;8.90;;
67981;SDS011;64109;52.148;4.466;2022-12-18T04:05:45;18.05;;;8.77;;
67981;SDS011;64109;52.148;4.466;2022-12-18T04:08:12;16.33;;;8.30;;
67981;SDS011;64109;52.148;4.466;2022-12-18T04:10:38;17.20;;;8.45;;
67981;SDS011;64109;52.148;4.466;2022-12-18T04:13:04;17.98;;;8.43;;
67981;SDS011;64109;52.148;4.466;2022-12-18T04:15:31;18.83;;;9.38;;
67981;SDS011;64109;52.148;4.466;2022-12-18T04:17:57;18.80;;;9.23;;
67981;SDS011;64109;52.148;4.466;2022-12-18T04:20:23;17.25;;;8.85;;
67981;SDS011;64109;52.148;4.466;2022-12-18T04:22:49;18.80;;;9.45;;
67981;SDS011;64109;52.148;4.466;2022-12-18T04:25:15;18.30;;;8.90;;
67981;SDS011;64109;52.148;4.466;2022-12-18T04:27:41;18.45;;;8.95;;
67981;SDS011;64109;52.148;4.466;2022-12-18T04:30:07;20.50;;;9.52;;
67981;SDS011;64109;52.148;4.466;2022-12-18T04:32:34;21.05;;;9.57;;
67981;SDS011;64109;52.148;4.466;2022-12-18T04:35:00;17.10;;;8.68;;
67981;SDS011;64109;52.148;4.466;2022-12-18T04:37:26;20.00;;;9.15;;
67981;SDS011;64109;52.148;4.466;2022-12-18T04:39:52;17.80;;;9.02;;
67981;SDS011;64109;52.148;4.466;2022-12-18T04:42:18;23.67;;;9.80;;
67981;SDS011;64109;52.148;4.466;2022-12-18T04:44:44;20.38;;;9.57;;
67981;SDS011;64109;52.148;4.466;2022-12-18T04:47:10;20.45;;;9.90;;
67981;SDS011;64109;52.148;4.466;2022-12-18T04:49:36;23.67;;;10.48;;
67981;SDS011;64109;52.148;4.466;2022-12-18T04:52:02;20.88;;;9.63;;
67981;SDS011;64109;52.148;4.466;2022-12-18T04:54:28;19.05;;;9.27;;
67981;SDS011;64109;52.148;4.466;2022-12-18T04:56:54;21.60;;;9.93;;
67981;SDS011;64109;52.148;4.466;2022-12-18T04:59:19;22.63;;;9.95;;
67981;SDS011;64109;52.148;4.466;2022-12-18T05:01:45;21.17;;;9.32;;
67981;SDS011;64109;52.148;4.466;2022-12-18T05:04:11;19.30;;;8.93;;
67981;SDS011;64109;52.148;4.466;2022-12-18T05:06:37;19.27;;;9.43;;
67981;SDS011;64109;52.148;4.466;2022-12-18T05:09:03;20.85;;;9.93;;
67981;SDS011;64109;52.148;4.466;2022-12-18T05:11:29;20.48;;;10.15;;
67981;SDS011;64109;52.148;4.466;2022-12-18T05:13:55;22.90;;;9.93;;
67981;SDS011;64109;52.148;4.466;2022-12-18T05:16:21;21.15;;;10.13;;
67981;SDS011;64109;52.148;4.466;2022-12-18T05:18:47;19.48;;;9.75;;
67981;SDS011;64109;52.148;4.466;2022-12-18T05:21:13;21.50;;;9.93;;
67981;SDS011;64109;52.148;4.466;2022-12-18T05:23:39;19.83;;;9.55;;
67981;SDS011;64109;52.148;4.466;2022-12-18T05:26:06;19.90;;;9.68;;
67981;SDS011;64109;52.148;4.466;2022-12-18T05:28:33;18.98;;;8.57;;
67981;SDS011;64109;52.148;4.466;2022-12-18T05:31:00;21.23;;;9.77;;
67981;SDS011;64109;52.148;4.466;2022-12-18T05:33:28;16.92;;;8.88;;
67981;SDS011;64109;52.148;4.466;2022-12-18T05:35:55;18.58;;;8.82;;
67981;SDS011;64109;52.148;4.466;2022-12-18T05:38:22;17.10;;;8.95;;
67981;SDS011;64109;52.148;4.466;2022-12-18T05:40:49;18.42;;;8.95;;
67981;SDS011;64109;52.148;4.466;2022-12-18T05:43:15;14.38;;;7.65;;
67981;SDS011;64109;52.148;4.466;2022-12-18T05:45:42;15.70;;;8.07;;
67981;SDS011;64109;52.148;4.466;2022-12-18T05:48:08;15.82;;;8.80;;
67981;SDS011;64109;52.148;4.466;2022-12-18T05:50:35;17.40;;;8.98;;
67981;SDS011;64109;52.148;4.466;2022-12-18T05:53:02;19.02;;;9.68;;
67981;SDS011;64109;52.148;4.466;2022-12-18T05:55:28;17.27;;;8.73;;
67981;SDS011;64109;52.148;4.466;2022-12-18T05:57:54;15.40;;;8.18;;
67981;SDS011;64109;52.148;4.466;2022-12-18T06:00:20;15.85;;;8.32;;
67981;SDS011;64109;52.148;4.466;2022-12-18T06:02:46;15.15;;;7.75;;
67981;SDS011;64109;52.148;4.466;2022-12-18T06:05:12;14.77;;;7.60;;
67981;SDS011;64109;52.148;4.466;2022-12-18T06:07:38;19.20;;;8.10;;
67981;SDS011;64109;52.148;4.466;2022-12-18T06:10:04;16.38;;;8.82;;
67981;SDS011;64109;52.148;4.466;2022-12-18T06:12:30;16.58;;;8.65;;
67981;SDS011;64109;52.148;4.466;2022-12-18T06:14:58;16.83;;;9.18;;
67981;SDS011;64109;52.148;4.466;2022-12-18T06:17:27;17.02;;;9.30;;
67981;SDS011;64109;52.148;4.466;2022-12-18T06:19:54;18.98;;;9.63;;
67981;SDS011;64109;52.148;4.466;2022-12-18T06:22:20;18.98;;;9.75;;
67981;SDS011;64109;52.148;4.466;2022-12-18T06:24:46;16.60;;;9.13;;
67981;SDS011;64109;52.148;4.466;2022-12-18T06:27:12;16.33;;;8.25;;
67981;SDS011;64109;52.148;4.466;2022-12-18T06:29:38;20.10;;;8.43;;
67981;SDS011;64109;52.148;4.466;2022-12-18T06:32:04;14.75;;;8.45;;
67981;SDS011;64109;52.148;4.466;2022-12-18T06:34:31;18.30;;;9.13;;
67981;SDS011;64109;52.148;4.466;2022-12-18T06:36:57;17.52;;;9.00;;
67981;SDS011;64109;52.148;4.466;2022-12-18T06:39:23;15.80;;;8.82;;
67981;SDS011;64109;52.148;4.466;2022-12-18T06:41:49;19.00;;;8.90;;
67981;SDS011;64109;52.148;4.466;2022-12-18T06:44:15;19.27;;;8.45;;
67981;SDS011;64109;52.148;4.466;2022-12-18T06:46:41;15.50;;;7.97;;
67981;SDS011;64109;52.148;4.466;2022-12-18T06:49:07;15.43;;;8.10;;
67981;SDS011;64109;52.148;4.466;2022-12-18T06:51:34;14.90;;;7.50;;
67981;SDS011;64109;52.148;4.466;2022-12-18T06:54:00;21.60;;;7.30;;
67981;SDS011;64109;52.148;4.466;2022-12-18T06:56:27;14.73;;;7.80;;
67981;SDS011;64109;52.148;4.466;2022-12-18T06:58:53;15.35;;;8.10;;
67981;SDS011;64109;52.148;4.466;2022-12-18T07:01:20;12.98;;;7.20;;
67981;SDS011;64109;52.148;4.466;2022-12-18T07:03:46;14.32;;;8.02;;
67981;SDS011;64109;52.148;4.466;2022-12-18T07:06:16;16.75;;;8.82;;
67981;SDS011;64109;52.148;4.466;2022-12-18T07:08:43;16.90;;;9.88;;
67981;SDS011;64109;52.148;4.466;2022-12-18T07:11:09;19.83;;;11.43;;
67981;SDS011;64109;52.148;4.466;2022-12-18T07:13:35;20.15;;;11.35;;
67981;SDS011;64109;52.148;4.466;2022-12-18T07:16:05;18.83;;;10.15;;
67981;SDS011;64109;52.148;4.466;2022-12-18T07:18:31;19.95;;;11.38;;
67981;SDS011;64109;52.148;4.466;2022-12-18T07:20:57;22.58;;;12.05;;
67981;SDS011;64109;52.148;4.466;2022-12-18T07:23:23;21.55;;;11.52;;
67981;SDS011;64109;52.148;4.466;2022-12-18T07:25:49;20.15;;;10.73;;
67981;SDS011;64109;52.148;4.466;2022-12-18T07:28:15;19.60;;;11.30;;
67981;SDS011;64109;52.148;4.466;2022-12-18T07:30:41;17.90;;;10.85;;
67981;SDS011;64109;52.148;4.466;2022-12-18T07:33:07;19.95;;;11.35;;
67981;SDS011;64109;52.148;4.466;2022-12-18T07:35:33;22.02;;;10.95;;
67981;SDS011;64109;52.148;4.466;2022-12-18T07:38:01;18.55;;;10.30;;
67981;SDS011;64109;52.148;4.466;2022-12-18T07:40:26;20.88;;;11.55;;
67981;SDS011;64109;52.148;4.466;2022-12-18T07:42:52;18.20;;;10.45;;
67981;SDS011;64109;52.148;4.466;2022-12-18T07:45:18;16.90;;;10.73;;
67981;SDS011;64109;52.148;4.466;2022-12-18T07:47:44;18.33;;;11.35;;
67981;SDS011;64109;52.148;4.466;2022-12-18T07:50:11;18.05;;;9.85;;
67981;SDS011;64109;52.148;4.466;2022-12-18T07:52:38;19.25;;;11.43;;
67981;SDS011;64109;52.148;4.466;2022-12-18T07:55:04;20.35;;;11.88;;
67981;SDS011;64109;52.148;4.466;2022-12-18T07:57:30;18.20;;;11.32;;
67981;SDS011;64109;52.148;4.466;2022-12-18T07:59:56;18.75;;;10.80;;
67981;SDS011;64109;52.148;4.466;2022-12-18T08:02:22;19.38;;;10.90;;
67981;SDS011;64109;52.148;4.466;2022-12-18T08:04:48;17.95;;;10.93;;
67981;SDS011;64109;52.148;4.466;2022-12-18T08:07:14;19.63;;;11.43;;
67981;SDS011;64109;52.148;4.466;2022-12-18T08:09:40;20.33;;;10.77;;
67981;SDS011;64109;52.148;4.466;2022-12-18T08:12:06;18.45;;;10.88;;
67981;SDS011;64109;52.148;4.466;2022-12-18T08:14:32;17.58;;;10.88;;
67981;SDS011;64109;52.148;4.466;2022-12-18T08:16:58;17.20;;;10.38;;
67981;SDS011;64109;52.148;4.466;2022-12-18T08:19:24;16.80;;;10.18;;
67981;SDS011;64109;52.148;4.466;2022-12-18T08:21:50;18.52;;;10.30;;
67981;SDS011;64109;52.148;4.466;2022-12-18T08:24:16;18.15;;;10.45;;
67981;SDS011;64109;52.148;4.466;2022-12-18T08:26:42;17.17;;;9.75;;
67981;SDS011;64109;52.148;4.466;2022-12-18T08:29:08;16.63;;;9.55;;
67981;SDS011;64109;52.148;4.466;2022-12-18T08:31:34;16.90;;;9.43;;
67981;SDS011;64109;52.148;4.466;2022-12-18T08:34:00;15.63;;;9.60;;
67981;SDS011;64109;52.148;4.466;2022-12-18T08:36:26;16.40;;;9.65;;
67981;SDS011;64109;52.148;4.466;2022-12-18T08:38:52;18.27;;;10.25;;
67981;SDS011;64109;52.148;4.466;2022-12-18T08:41:18;18.13;;;10.48;;
67981;SDS011;64109;52.148;4.466;2022-12-18T08:43:44;18.20;;;10.73;;
67981;SDS011;64109;52.148;4.466;2022-12-18T08:46:34;17.83;;;9.65;;
67981;SDS011;64109;52.148;4.466;2022-12-18T08:49:00;15.35;;;8.90;;
67981;SDS011;64109;52.148;4.466;2022-12-18T08:51:26;15.07;;;9.45;;
67981;SDS011;64109;52.148;4.466;2022-12-18T08:53:52;14.88;;;9.05;;
67981;SDS011;64109;52.148;4.466;2022-12-18T08:56:18;15.50;;;9.00;;
67981;SDS011;64109;52.148;4.466;2022-12-18T08:58:44;16.13;;;9.48;;
67981;SDS011;64109;52.148;4.466;2022-12-18T09:01:10;15.70;;;9.45;;
67981;SDS011;64109;52.148;4.466;2022-12-18T09:03:37;14.90;;;9.25;;
67981;SDS011;64109;52.148;4.466;2022-12-18T09:06:03;15.98;;;8.98;;
67981;SDS011;64109;52.148;4.466;2022-12-18T09:08:29;14.38;;;8.65;;
67981;SDS011;64109;52.148;4.466;2022-12-18T09:10:55;14.13;;;9.05;;
67981;SDS011;64109;52.148;4.466;2022-12-18T09:13:21;14.52;;;9.25;;
67981;SDS011;64109;52.148;4.466;2022-12-18T09:15:49;13.93;;;9.27;;
67981;SDS011;64109;52.148;4.466;2022-12-18T09:18:15;15.30;;;9.43;;
67981;SDS011;64109;52.148;4.466;2022-12-18T09:20:41;16.63;;;9.82;;
67981;SDS011;64109;52.148;4.466;2022-12-18T09:23:07;15.27;;;9.10;;
67981;SDS011;64109;52.148;4.466;2022-12-18T09:25:34;16.20;;;9.77;;
67981;SDS011;64109;52.148;4.466;2022-12-18T09:28:04;14.07;;;8.82;;
67981;SDS011;64109;52.148;4.466;2022-12-18T09:30:30;15.20;;;8.95;;
67981;SDS011;64109;52.148;4.466;2022-12-18T09:32:58;15.82;;;9.27;;
67981;SDS011;64109;52.148;4.466;2022-12-18T09:35:24;14.57;;;8.68;;
67981;SDS011;64109;52.148;4.466;2022-12-18T09:37:50;14.32;;;8.95;;
67981;SDS011;64109;52.148;4.466;2022-12-18T09:40:18;14.60;;;8.48;;
67981;SDS011;64109;52.148;4.466;2022-12-18T09:42:45;15.05;;;9.13;;
67981;SDS011;64109;52.148;4.466;2022-12-18T09:45:13;22.25;;;9.43;;
67981;SDS011;64109;52.148;4.466;2022-12-18T09:47:39;13.73;;;8.25;;
67981;SDS011;64109;52.148;4.466;2022-12-18T09:50:15;15.13;;;8.57;;
67981;SDS011;64109;52.148;4.466;2022-12-18T09:52:47;14.90;;;8.65;;
67981;SDS011;64109;52.148;4.466;2022-12-18T09:55:17;14.00;;;8.57;;
67981;SDS011;64109;52.148;4.466;2022-12-18T09:57:55;13.25;;;7.85;;
67981;SDS011;64109;52.148;4.466;2022-12-18T10:00:23;15.35;;;8.55;;
67981;SDS011;64109;52.148;4.466;2022-12-18T10:02:53;13.13;;;7.82;;
67981;SDS011;64109;52.148;4.466;2022-12-18T10:10:48;12.82;;;7.32;;
67981;SDS011;64109;52.148;4.466;2022-12-18T10:18:56;10.98;;;6.72;;
67981;SDS011;64109;52.148;4.466;2022-12-18T10:22:15;12.95;;;7.57;;
67981;SDS011;64109;52.148;4.466;2022-12-18T10:24:26;12.65;;;7.28;;
67981;SDS011;64109;52.148;4.466;2022-12-18T10:29:20;12.55;;;7.38;;
67981;SDS011;64109;52.148;4.466;2022-12-18T10:31:46;13.00;;;7.18;;
67981;SDS011;64109;52.148;4.466;2022-12-18T10:34:12;11.05;;;6.47;;
67981;SDS011;64109;52.148;4.466;2022-12-18T10:36:38;10.85;;;6.68;;
67981;SDS011;64109;52.148;4.466;2022-12-18T10:39:23;11.43;;;6.88;;
67981;SDS011;64109;52.148;4.466;2022-12-18T10:41:51;12.45;;;6.57;;
67981;SDS011;64109;52.148;4.466;2022-12-18T10:44:21;9.75;;;6.32;;
67981;SDS011;64109;52.148;4.466;2022-12-18T10:46:48;11.93;;;6.80;;
67981;SDS011;64109;52.148;4.466;2022-12-18T10:49:22;11.73;;;7.13;;
67981;SDS011;64109;52.148;4.466;2022-12-18T10:51:49;9.63;;;6.05;;
67981;SDS011;64109;52.148;4.466;2022-12-18T10:54:16;11.48;;;6.75;;
67981;SDS011;64109;52.148;4.466;2022-12-18T10:56:43;9.60;;;5.95;;
67981;SDS011;64109;52.148;4.466;2022-12-18T10:59:10;10.77;;;6.20;;
67981;SDS011;64109;52.148;4.466;2022-12-18T11:01:47;10.90;;;6.28;;
67981;SDS011;64109;52.148;4.466;2022-12-18T11:04:31;10.85;;;6.57;;
67981;SDS011;64109;52.148;4.466;2022-12-18T11:07:03;10.98;;;6.97;;
67981;SDS011;64109;52.148;4.466;2022-12-18T11:11:57;10.07;;;6.03;;
67981;SDS011;64109;52.148;4.466;2022-12-18T11:15:13;9.77;;;6.07;;
67981;SDS011;64109;52.148;4.466;2022-12-18T11:17:18;9.35;;;5.53;;
67981;SDS011;64109;52.148;4.466;2022-12-18T11:19:44;11.90;;;6.30;;
67981;SDS011;64109;52.148;4.466;2022-12-18T11:22:20;8.02;;;5.50;;
67981;SDS011;64109;52.148;4.466;2022-12-18T11:24:54;9.77;;;6.43;;
67981;SDS011;64109;52.148;4.466;2022-12-18T11:27:20;10.52;;;5.93;;
67981;SDS011;64109;52.148;4.466;2022-12-18T11:29:46;10.38;;;5.75;;
67981;SDS011;64109;52.148;4.466;2022-12-18T11:34:42;9.80;;;5.68;;
67981;SDS011;64109;52.148;4.466;2022-12-18T11:37:09;8.38;;;5.72;;
67981;SDS011;64109;52.148;4.466;2022-12-18T11:39:38;8.80;;;5.70;;
67981;SDS011;64109;52.148;4.466;2022-12-18T11:42:17;10.15;;;6.05;;
67981;SDS011;64109;52.148;4.466;2022-12-18T11:44:48;9.18;;;5.72;;
67981;SDS011;64109;52.148;4.466;2022-12-18T11:49:51;8.25;;;5.25;;
67981;SDS011;64109;52.148;4.466;2022-12-18T11:52:28;8.65;;;5.30;;
67981;SDS011;64109;52.148;4.466;2022-12-18T11:55:04;9.07;;;5.78;;
67981;SDS011;64109;52.148;4.466;2022-12-18T12:18:49;8.55;;;4.88;;
67981;SDS011;64109;52.148;4.466;2022-12-18T12:23:42;9.93;;;5.30;;
67981;SDS011;64109;52.148;4.466;2022-12-18T12:29:07;8.73;;;5.00;;
67981;SDS011;64109;52.148;4.466;2022-12-18T12:34:26;7.80;;;4.80;;
67981;SDS011;64109;52.148;4.466;2022-12-18T12:39:35;9.18;;;4.93;;
67981;SDS011;64109;52.148;4.466;2022-12-18T12:42:04;7.72;;;5.15;;
67981;SDS011;64109;52.148;4.466;2022-12-18T12:44:51;7.75;;;4.63;;
67981;SDS011;64109;52.148;4.466;2022-12-18T12:47:23;7.97;;;5.10;;
67981;SDS011;64109;52.148;4.466;2022-12-18T12:49:49;8.95;;;5.03;;
67981;SDS011;64109;52.148;4.466;2022-12-18T12:52:28;8.38;;;4.90;;
67981;SDS011;64109;52.148;4.466;2022-12-18T12:54:56;8.02;;;4.60;;
67981;SDS011;64109;52.148;4.466;2022-12-18T12:57:35;7.40;;;4.35;;
67981;SDS011;64109;52.148;4.466;2022-12-18T13:02:41;8.52;;;4.68;;
67981;SDS011;64109;52.148;4.466;2022-12-18T13:07:57;7.47;;;4.22;;
67981;SDS011;64109;52.148;4.466;2022-12-18T13:10:26;7.22;;;4.75;;
67981;SDS011;64109;52.148;4.466;2022-12-18T13:15:38;9.50;;;4.85;;
67981;SDS011;64109;52.148;4.466;2022-12-18T13:20:37;7.32;;;4.50;;
67981;SDS011;64109;52.148;4.466;2022-12-18T13:25:52;8.93;;;4.82;;
67981;SDS011;64109;52.148;4.466;2022-12-18T13:31:00;5.72;;;4.20;;
67981;SDS011;64109;52.148;4.466;2022-12-18T13:45:49;7.93;;;4.47;;
67981;SDS011;64109;52.148;4.466;2022-12-18T13:48:24;6.72;;;4.00;;
67981;SDS011;64109;52.148;4.466;2022-12-18T13:51:01;7.95;;;4.53;;
67981;SDS011;64109;52.148;4.466;2022-12-18T13:56:17;7.28;;;4.03;;
67981;SDS011;64109;52.148;4.466;2022-12-18T13:58:43;8.27;;;4.50;;
67981;SDS011;64109;52.148;4.466;2022-12-18T14:01:21;7.55;;;4.40;;
67981;SDS011;64109;52.148;4.466;2022-12-18T14:03:48;7.65;;;4.47;;
67981;SDS011;64109;52.148;4.466;2022-12-18T14:06:14;6.60;;;4.35;;
67981;SDS011;64109;52.148;4.466;2022-12-18T14:08:40;6.15;;;4.03;;
67981;SDS011;64109;52.148;4.466;2022-12-18T14:11:07;7.93;;;3.83;;
67981;SDS011;64109;52.148;4.466;2022-12-18T14:13:43;6.97;;;4.22;;
67981;SDS011;64109;52.148;4.466;2022-12-18T14:16:11;7.22;;;4.00;;
67981;SDS011;64109;52.148;4.466;2022-12-18T14:18:52;8.25;;;4.45;;
67981;SDS011;64109;52.148;4.466;2022-12-18T14:21:24;6.60;;;4.38;;
67981;SDS011;64109;52.148;4.466;2022-12-18T14:26:36;7.50;;;3.83;;
67981;SDS011;64109;52.148;4.466;2022-12-18T14:32:07;5.82;;;4.07;;
67981;SDS011;64109;52.148;4.466;2022-12-18T14:34:33;7.40;;;4.07;;
67981;SDS011;64109;52.148;4.466;2022-12-18T14:36:59;6.07;;;3.92;;
67981;SDS011;64109;52.148;4.466;2022-12-18T14:39:25;6.38;;;4.53;;
67981;SDS011;64109;52.148;4.466;2022-12-18T14:41:51;6.80;;;4.07;;
67981;SDS011;64109;52.148;4.466;2022-12-18T14:44:17;7.32;;;4.30;;
67981;SDS011;64109;52.148;4.466;2022-12-18T14:46:47;6.93;;;4.40;;
67981;SDS011;64109;52.148;4.466;2022-12-18T14:49:33;7.40;;;3.92;;
67981;SDS011;64109;52.148;4.466;2022-12-18T14:52:00;6.22;;;4.13;;
67981;SDS011;64109;52.148;4.466;2022-12-18T14:54:26;9.10;;;4.47;;
67981;SDS011;64109;52.148;4.466;2022-12-18T14:57:01;8.10;;;4.00;;
67981;SDS011;64109;52.148;4.466;2022-12-18T14:59:28;9.93;;;4.97;;
67981;SDS011;64109;52.148;4.466;2022-12-18T15:04:33;7.78;;;4.53;;
67981;SDS011;64109;52.148;4.466;2022-12-18T15:09:35;6.47;;;3.85;;
67981;SDS011;64109;52.148;4.466;2022-12-18T15:12:01;7.63;;;4.15;;
67981;SDS011;64109;52.148;4.466;2022-12-18T15:14:40;5.72;;;3.88;;
67981;SDS011;64109;52.148;4.466;2022-12-18T15:17:14;8.25;;;4.35;;
67981;SDS011;64109;52.148;4.466;2022-12-18T15:19:42;9.80;;;4.53;;
67981;SDS011;64109;52.148;4.466;2022-12-18T15:22:20;7.38;;;4.40;;
67981;SDS011;64109;52.148;4.466;2022-12-18T15:24:46;9.32;;;4.20;;
67981;SDS011;64109;52.148;4.466;2022-12-18T15:27:22;6.68;;;3.80;;
67981;SDS011;64109;52.148;4.466;2022-12-18T15:32:33;9.68;;;4.15;;
67981;SDS011;64109;52.148;4.466;2022-12-18T15:35:19;8.25;;;4.72;;
67981;SDS011;64109;52.148;4.466;2022-12-18T15:37:46;7.15;;;4.13;;
67981;SDS011;64109;52.148;4.466;2022-12-18T15:40:13;9.20;;;4.70;;
67981;SDS011;64109;52.148;4.466;2022-12-18T15:42:40;7.97;;;4.68;;
67981;SDS011;64109;52.148;4.466;2022-12-18T15:45:24;7.00;;;4.25;;
67981;SDS011;64109;52.148;4.466;2022-12-18T15:47:50;6.90;;;4.05;;
67981;SDS011;64109;52.148;4.466;2022-12-18T15:50:17;9.13;;;4.07;;
67981;SDS011;64109;52.148;4.466;2022-12-18T15:52:44;7.22;;;4.30;;
67981;SDS011;64109;52.148;4.466;2022-12-18T15:55:11;7.00;;;4.50;;
67981;SDS011;64109;52.148;4.466;2022-12-18T15:57:56;7.15;;;4.00;;
67981;SDS011;64109;52.148;4.466;2022-12-18T16:00:22;6.68;;;3.85;;
67981;SDS011;64109;52.148;4.466;2022-12-18T16:02:48;7.03;;;3.88;;
67981;SDS011;64109;52.148;4.466;2022-12-18T16:05:15;7.53;;;4.03;;
67981;SDS011;64109;52.148;4.466;2022-12-18T16:07:42;9.30;;;4.53;;
67981;SDS011;64109;52.148;4.466;2022-12-18T16:10:08;7.75;;;4.72;;
67981;SDS011;64109;52.148;4.466;2022-12-18T16:12:34;6.78;;;4.22;;
67981;SDS011;64109;52.148;4.466;2022-12-18T16:15:00;9.55;;;4.18;;
67981;SDS011;64109;52.148;4.466;2022-12-18T16:17:26;7.03;;;4.40;;
67981;SDS011;64109;52.148;4.466;2022-12-18T16:19:52;7.50;;;4.43;;
67981;SDS011;64109;52.148;4.466;2022-12-18T16:24:44;6.85;;;4.20;;
67981;SDS011;64109;52.148;4.466;2022-12-18T16:27:10;7.80;;;4.50;;
67981;SDS011;64109;52.148;4.466;2022-12-18T16:29:36;7.78;;;5.13;;
67981;SDS011;64109;52.148;4.466;2022-12-18T16:32:02;7.57;;;4.43;;
67981;SDS011;64109;52.148;4.466;2022-12-18T16:34:29;6.35;;;3.95;;
67981;SDS011;64109;52.148;4.466;2022-12-18T16:36:57;7.18;;;4.40;;
67981;SDS011;64109;52.148;4.466;2022-12-18T16:39:24;7.57;;;4.43;;
67981;SDS011;64109;52.148;4.466;2022-12-18T16:41:50;7.57;;;4.78;;
67981;SDS011;64109;52.148;4.466;2022-12-18T16:44:16;7.82;;;4.82;;
67981;SDS011;64109;52.148;4.466;2022-12-18T16:46:42;8.48;;;5.10;;
67981;SDS011;64109;52.148;4.466;2022-12-18T16:49:10;7.25;;;3.97;;
67981;SDS011;64109;52.148;4.466;2022-12-18T16:51:36;8.35;;;5.20;;
67981;SDS011;64109;52.148;4.466;2022-12-18T16:54:02;7.43;;;4.90;;
67981;SDS011;64109;52.148;4.466;2022-12-18T16:56:28;7.25;;;4.22;;